sensor_id;sensor_type;location;lat;lon;timestamp;temperature;humidity
70734;DHT22;58320;48.804;9.252;2023-08-08T00:01:06;12.90;75.80
70734;DHT22;58320;48.804;9.252;2023-08-08T00:03:32;12.90;75.70
70734;DHT22;58320;48.804;9.252;2023-08-08T00:05:58;12.90;75.70
70734;DHT22;58320;48.804;9.252;2023-08-08T00:08:24;12.80;75.90
70734;DHT22;58320;48.804;9.252;2023-08-08T00:10:49;12.80;76.20
70734;DHT22;58320;48.804;9.252;2023-08-08T00:13:15;12.80;76.30
70734;DHT22;58320;48.804;9.252;2023-08-08T00:15:41;12.90;76.10
70734;DHT22;58320;48.804;9.252;2023-08-08T00:18:07;12.90;76.30
70734;DHT22;58320;48.804;9.252;2023-08-08T00:20:33;12.90;76.40
70734;DHT22;58320;48.804;9.252;2023-08-08T00:22:59;12.90;76.50
70734;DHT22;58320;48.804;9.252;2023-08-08T00:25:25;12.90;76.30
70734;DHT22;58320;48.804;9.252;2023-08-08T00:27:51;12.90;76.10
70734;DHT22;58320;48.804;9.252;2023-08-08T00:30:16;13.00;76.30
70734;DHT22;58320;48.804;9.252;2023-08-08T00:32:42;13.10;75.80
70734;DHT22;58320;48.804;9.252;2023-08-08T00:35:08;13.10;75.50
70734;DHT22;58320;48.804;9.252;2023-08-08T00:37:34;13.20;75.30
70734;DHT22;58320;48.804;9.252;2023-08-08T00:40:00;13.20;75.20
70734;DHT22;58320;48.804;9.252;2023-08-08T00:42:26;13.20;75.20
70734;DHT22;58320;48.804;9.252;2023-08-08T00:44:51;13.30;75.10
70734;DHT22;58320;48.804;9.252;2023-08-08T00:47:17;13.30;75.00
70734;DHT22;58320;48.804;9.252;2023-08-08T00:49:43;13.30;74.70
70734;DHT22;58320;48.804;9.252;2023-08-08T00:52:11;13.40;74.60
70734;DHT22;58320;48.804;9.252;2023-08-08T00:54:37;13.50;73.80
70734;DHT22;58320;48.804;9.252;2023-08-08T00:57:03;13.50;73.40
70734;DHT22;58320;48.804;9.252;2023-08-08T00:59:29;13.60;73.00
70734;DHT22;58320;48.804;9.252;2023-08-08T01:01:56;13.70;72.80
70734;DHT22;58320;48.804;9.252;2023-08-08T01:04:25;13.70;72.70
70734;DHT22;58320;48.804;9.252;2023-08-08T01:10:17;13.70;72.90
70734;DHT22;58320;48.804;9.252;2023-08-08T01:12:54;13.70;72.60
70734;DHT22;58320;48.804;9.252;2023-08-08T01:15:22;13.70;72.80
70734;DHT22;58320;48.804;9.252;2023-08-08T01:17:48;13.70;72.80
70734;DHT22;58320;48.804;9.252;2023-08-08T01:20:14;13.70;72.70
70734;DHT22;58320;48.804;9.252;2023-08-08T01:23:09;13.70;72.70
70734;DHT22;58320;48.804;9.252;2023-08-08T01:25:37;13.70;72.70
70734;DHT22;58320;48.804;9.252;2023-08-08T01:28:06;13.70;72.80
70734;DHT22;58320;48.804;9.252;2023-08-08T01:30:33;13.80;72.70
70734;DHT22;58320;48.804;9.252;2023-08-08T01:32:59;13.80;72.40
70734;DHT22;58320;48.804;9.252;2023-08-08T01:35:29;13.90;72.50
70734;DHT22;58320;48.804;9.252;2023-08-08T01:38:26;13.80;72.40
70734;DHT22;58320;48.804;9.252;2023-08-08T01:40:55;13.80;72.60
70734;DHT22;58320;48.804;9.252;2023-08-08T01:43:24;13.80;72.80
70734;DHT22;58320;48.804;9.252;2023-08-08T01:45:51;13.80;72.90
70734;DHT22;58320;48.804;9.252;2023-08-08T01:48:18;13.80;73.10
70734;DHT22;58320;48.804;9.252;2023-08-08T01:50:44;13.80;73.20
70734;DHT22;58320;48.804;9.252;2023-08-08T01:53:09;13.80;73.20
70734;DHT22;58320;48.804;9.252;2023-08-08T01:55:35;13.80;73.50
70734;DHT22;58320;48.804;9.252;2023-08-08T01:58:01;13.70;73.50
70734;DHT22;58320;48.804;9.252;2023-08-08T02:00:27;13.70;73.70
70734;DHT22;58320;48.804;9.252;2023-08-08T02:02:52;13.80;73.80
70734;DHT22;58320;48.804;9.252;2023-08-08T02:05:18;13.70;73.90
70734;DHT22;58320;48.804;9.252;2023-08-08T02:07:44;13.70;73.80
70734;DHT22;58320;48.804;9.252;2023-08-08T02:10:10;13.80;74.00
70734;DHT22;58320;48.804;9.252;2023-08-08T02:12:35;13.80;73.80
70734;DHT22;58320;48.804;9.252;2023-08-08T02:15:01;13.80;73.60
70734;DHT22;58320;48.804;9.252;2023-08-08T02:17:28;13.80;73.20
70734;DHT22;58320;48.804;9.252;2023-08-08T02:19:54;13.80;73.30
70734;DHT22;58320;48.804;9.252;2023-08-08T02:22:20;13.90;73.20
70734;DHT22;58320;48.804;9.252;2023-08-08T02:24:46;13.90;73.40
70734;DHT22;58320;48.804;9.252;2023-08-08T02:27:12;13.90;73.70
70734;DHT22;58320;48.804;9.252;2023-08-08T02:29:38;13.90;73.40
70734;DHT22;58320;48.804;9.252;2023-08-08T02:32:04;13.90;73.40
70734;DHT22;58320;48.804;9.252;2023-08-08T02:34:30;13.90;73.50
70734;DHT22;58320;48.804;9.252;2023-08-08T02:36:56;13.90;73.50
70734;DHT22;58320;48.804;9.252;2023-08-08T02:39:21;13.90;73.60
70734;DHT22;58320;48.804;9.252;2023-08-08T02:41:47;13.80;74.00
70734;DHT22;58320;48.804;9.252;2023-08-08T02:44:13;13.70;74.50
70734;DHT22;58320;48.804;9.252;2023-08-08T02:46:38;13.60;74.70
70734;DHT22;58320;48.804;9.252;2023-08-08T02:49:04;13.50;75.20
70734;DHT22;58320;48.804;9.252;2023-08-08T02:51:30;13.50;75.30
70734;DHT22;58320;48.804;9.252;2023-08-08T02:53:56;13.40;75.70
70734;DHT22;58320;48.804;9.252;2023-08-08T02:56:22;13.40;75.50
70734;DHT22;58320;48.804;9.252;2023-08-08T02:58:47;13.40;75.90
70734;DHT22;58320;48.804;9.252;2023-08-08T03:01:13;13.60;76.10
70734;DHT22;58320;48.804;9.252;2023-08-08T03:03:41;13.30;76.20
70734;DHT22;58320;48.804;9.252;2023-08-08T03:06:07;13.30;76.10
70734;DHT22;58320;48.804;9.252;2023-08-08T03:08:33;13.40;76.00
70734;DHT22;58320;48.804;9.252;2023-08-08T03:10:59;13.30;76.20
70734;DHT22;58320;48.804;9.252;2023-08-08T03:13:25;13.30;76.00
70734;DHT22;58320;48.804;9.252;2023-08-08T03:15:51;13.30;76.30
70734;DHT22;58320;48.804;9.252;2023-08-08T03:18:16;13.40;76.50
70734;DHT22;58320;48.804;9.252;2023-08-08T03:20:42;13.10;76.80
70734;DHT22;58320;48.804;9.252;2023-08-08T03:23:08;13.10;77.10
70734;DHT22;58320;48.804;9.252;2023-08-08T03:25:33;13.10;77.30
70734;DHT22;58320;48.804;9.252;2023-08-08T03:27:59;13.10;77.20
70734;DHT22;58320;48.804;9.252;2023-08-08T03:30:25;13.00;77.90
70734;DHT22;58320;48.804;9.252;2023-08-08T03:32:51;13.00;77.90
70734;DHT22;58320;48.804;9.252;2023-08-08T03:35:17;13.00;78.30
70734;DHT22;58320;48.804;9.252;2023-08-08T03:37:42;12.90;78.10
70734;DHT22;58320;48.804;9.252;2023-08-08T03:40:08;12.90;78.30
70734;DHT22;58320;48.804;9.252;2023-08-08T03:42:34;12.90;78.50
70734;DHT22;58320;48.804;9.252;2023-08-08T03:45:00;12.90;78.40
70734;DHT22;58320;48.804;9.252;2023-08-08T03:47:26;12.90;78.20
70734;DHT22;58320;48.804;9.252;2023-08-08T03:49:53;13.00;78.30
70734;DHT22;58320;48.804;9.252;2023-08-08T03:52:22;13.10;77.70
70734;DHT22;58320;48.804;9.252;2023-08-08T03:54:49;13.10;77.70
70734;DHT22;58320;48.804;9.252;2023-08-08T03:57:14;13.20;77.40
70734;DHT22;58320;48.804;9.252;2023-08-08T03:59:40;13.20;77.20
70734;DHT22;58320;48.804;9.252;2023-08-08T04:02:06;13.30;77.00
70734;DHT22;58320;48.804;9.252;2023-08-08T04:04:31;13.40;76.90
70734;DHT22;58320;48.804;9.252;2023-08-08T04:06:57;13.40;76.30
70734;DHT22;58320;48.804;9.252;2023-08-08T04:09:23;13.50;76.60
70734;DHT22;58320;48.804;9.252;2023-08-08T04:11:49;13.50;75.80
70734;DHT22;58320;48.804;9.252;2023-08-08T04:14:14;13.60;75.70
70734;DHT22;58320;48.804;9.252;2023-08-08T04:16:40;13.60;75.70
70734;DHT22;58320;48.804;9.252;2023-08-08T04:19:06;13.70;75.60
70734;DHT22;58320;48.804;9.252;2023-08-08T04:21:32;13.70;75.00
70734;DHT22;58320;48.804;9.252;2023-08-08T04:23:58;13.70;74.90
70734;DHT22;58320;48.804;9.252;2023-08-08T04:26:25;13.80;75.10
70734;DHT22;58320;48.804;9.252;2023-08-08T04:28:51;13.80;75.40
70734;DHT22;58320;48.804;9.252;2023-08-08T04:31:17;13.80;75.20
70734;DHT22;58320;48.804;9.252;2023-08-08T04:33:43;13.80;75.30
70734;DHT22;58320;48.804;9.252;2023-08-08T04:36:09;13.70;75.40
70734;DHT22;58320;48.804;9.252;2023-08-08T04:38:35;13.70;75.70
70734;DHT22;58320;48.804;9.252;2023-08-08T04:41:00;13.70;75.50
70734;DHT22;58320;48.804;9.252;2023-08-08T04:43:26;13.70;75.30
70734;DHT22;58320;48.804;9.252;2023-08-08T04:45:53;13.80;75.40
70734;DHT22;58320;48.804;9.252;2023-08-08T04:48:19;13.80;75.10
70734;DHT22;58320;48.804;9.252;2023-08-08T04:50:48;13.90;75.00
70734;DHT22;58320;48.804;9.252;2023-08-08T04:53:13;13.90;74.30
70734;DHT22;58320;48.804;9.252;2023-08-08T04:55:39;14.00;74.10
70734;DHT22;58320;48.804;9.252;2023-08-08T04:58:05;14.10;74.30
70734;DHT22;58320;48.804;9.252;2023-08-08T05:00:31;14.20;74.30
70734;DHT22;58320;48.804;9.252;2023-08-08T05:02:56;14.20;73.80
70734;DHT22;58320;48.804;9.252;2023-08-08T05:05:22;14.30;73.80
70734;DHT22;58320;48.804;9.252;2023-08-08T05:07:48;14.30;73.50
70734;DHT22;58320;48.804;9.252;2023-08-08T05:10:14;14.20;74.20
70734;DHT22;58320;48.804;9.252;2023-08-08T05:12:39;14.20;74.30
70734;DHT22;58320;48.804;9.252;2023-08-08T05:15:05;14.10;74.80
70734;DHT22;58320;48.804;9.252;2023-08-08T05:17:31;14.00;75.30
70734;DHT22;58320;48.804;9.252;2023-08-08T05:19:57;14.00;75.80
70734;DHT22;58320;48.804;9.252;2023-08-08T05:22:23;14.00;75.90
70734;DHT22;58320;48.804;9.252;2023-08-08T05:24:55;14.10;75.20
70734;DHT22;58320;48.804;9.252;2023-08-08T05:27:21;14.10;74.40
70734;DHT22;58320;48.804;9.252;2023-08-08T05:29:46;14.20;74.70
70734;DHT22;58320;48.804;9.252;2023-08-08T05:32:12;14.30;74.20
70734;DHT22;58320;48.804;9.252;2023-08-08T05:34:38;14.30;73.80
70734;DHT22;58320;48.804;9.252;2023-08-08T05:37:04;14.30;73.50
70734;DHT22;58320;48.804;9.252;2023-08-08T05:39:30;14.40;73.60
70734;DHT22;58320;48.804;9.252;2023-08-08T05:41:56;14.40;73.60
70734;DHT22;58320;48.804;9.252;2023-08-08T05:44:22;14.40;74.10
70734;DHT22;58320;48.804;9.252;2023-08-08T05:46:48;14.50;73.00
70734;DHT22;58320;48.804;9.252;2023-08-08T05:49:13;14.50;73.00
70734;DHT22;58320;48.804;9.252;2023-08-08T05:51:40;14.60;72.50
70734;DHT22;58320;48.804;9.252;2023-08-08T05:54:06;14.70;71.80
70734;DHT22;58320;48.804;9.252;2023-08-08T05:56:36;14.70;71.80
70734;DHT22;58320;48.804;9.252;2023-08-08T05:59:04;14.80;72.30
70734;DHT22;58320;48.804;9.252;2023-08-08T06:01:31;14.90;72.30
70734;DHT22;58320;48.804;9.252;2023-08-08T06:03:58;15.00;71.70
70734;DHT22;58320;48.804;9.252;2023-08-08T06:06:25;15.10;71.40
70734;DHT22;58320;48.804;9.252;2023-08-08T06:08:51;15.10;70.70
70734;DHT22;58320;48.804;9.252;2023-08-08T06:11:17;15.20;71.10
70734;DHT22;58320;48.804;9.252;2023-08-08T06:13:43;15.30;70.40
70734;DHT22;58320;48.804;9.252;2023-08-08T06:16:09;15.40;70.40
70734;DHT22;58320;48.804;9.252;2023-08-08T06:18:35;15.60;69.10
70734;DHT22;58320;48.804;9.252;2023-08-08T06:21:01;15.70;68.50
70734;DHT22;58320;48.804;9.252;2023-08-08T06:23:27;15.90;68.50
70734;DHT22;58320;48.804;9.252;2023-08-08T06:25:53;16.10;67.40
70734;DHT22;58320;48.804;9.252;2023-08-08T06:28:19;16.10;66.90
70734;DHT22;58320;48.804;9.252;2023-08-08T06:30:45;16.20;67.10
70734;DHT22;58320;48.804;9.252;2023-08-08T06:33:11;16.30;67.40
70734;DHT22;58320;48.804;9.252;2023-08-08T06:35:37;16.40;66.10
70734;DHT22;58320;48.804;9.252;2023-08-08T06:38:03;16.50;66.50
70734;DHT22;58320;48.804;9.252;2023-08-08T06:40:29;16.60;66.00
70734;DHT22;58320;48.804;9.252;2023-08-08T06:42:54;16.80;65.20
70734;DHT22;58320;48.804;9.252;2023-08-08T06:45:21;16.80;64.90
70734;DHT22;58320;48.804;9.252;2023-08-08T06:47:47;16.80;65.20
70734;DHT22;58320;48.804;9.252;2023-08-08T06:50:12;16.80;65.40
70734;DHT22;58320;48.804;9.252;2023-08-08T06:52:38;16.90;64.10
70734;DHT22;58320;48.804;9.252;2023-08-08T06:55:04;16.80;63.60
70734;DHT22;58320;48.804;9.252;2023-08-08T06:57:34;16.90;64.70
70734;DHT22;58320;48.804;9.252;2023-08-08T07:00:01;17.00;63.50
70734;DHT22;58320;48.804;9.252;2023-08-08T07:02:30;17.20;62.50
70734;DHT22;58320;48.804;9.252;2023-08-08T07:04:55;17.30;63.10
70734;DHT22;58320;48.804;9.252;2023-08-08T07:07:21;17.40;62.60
70734;DHT22;58320;48.804;9.252;2023-08-08T07:09:48;17.60;61.50
70734;DHT22;58320;48.804;9.252;2023-08-08T07:12:14;17.60;61.20
70734;DHT22;58320;48.804;9.252;2023-08-08T07:14:40;17.60;60.70
70734;DHT22;58320;48.804;9.252;2023-08-08T07:17:06;17.60;61.10
70734;DHT22;58320;48.804;9.252;2023-08-08T07:19:31;17.60;60.50
70734;DHT22;58320;48.804;9.252;2023-08-08T07:21:57;17.70;60.50
70734;DHT22;58320;48.804;9.252;2023-08-08T07:24:23;17.70;62.60
70734;DHT22;58320;48.804;9.252;2023-08-08T07:26:55;17.90;60.60
70734;DHT22;58320;48.804;9.252;2023-08-08T07:29:21;17.90;60.10
70734;DHT22;58320;48.804;9.252;2023-08-08T07:31:47;18.00;60.50
70734;DHT22;58320;48.804;9.252;2023-08-08T07:34:13;18.00;60.20
70734;DHT22;58320;48.804;9.252;2023-08-08T07:36:38;18.10;61.00
70734;DHT22;58320;48.804;9.252;2023-08-08T07:39:04;18.30;60.30
70734;DHT22;58320;48.804;9.252;2023-08-08T07:41:30;18.40;59.80
70734;DHT22;58320;48.804;9.252;2023-08-08T07:43:56;18.60;59.50
70734;DHT22;58320;48.804;9.252;2023-08-08T07:46:23;18.70;59.30
70734;DHT22;58320;48.804;9.252;2023-08-08T07:48:48;19.10;58.00
70734;DHT22;58320;48.804;9.252;2023-08-08T07:51:14;19.40;58.30
70734;DHT22;58320;48.804;9.252;2023-08-08T07:53:40;19.80;56.70
70734;DHT22;58320;48.804;9.252;2023-08-08T07:56:06;20.20;54.60
70734;DHT22;58320;48.804;9.252;2023-08-08T07:58:32;20.50;54.10
70734;DHT22;58320;48.804;9.252;2023-08-08T08:00:58;20.50;52.30
70734;DHT22;58320;48.804;9.252;2023-08-08T08:03:25;20.50;52.30
70734;DHT22;58320;48.804;9.252;2023-08-08T08:05:52;20.20;52.40
70734;DHT22;58320;48.804;9.252;2023-08-08T08:08:18;20.10;53.40
70734;DHT22;58320;48.804;9.252;2023-08-08T08:10:44;20.20;51.70
70734;DHT22;58320;48.804;9.252;2023-08-08T08:13:11;19.90;51.70
70734;DHT22;58320;48.804;9.252;2023-08-08T08:15:37;19.80;53.40
70734;DHT22;58320;48.804;9.252;2023-08-08T08:18:03;19.90;51.50
70734;DHT22;58320;48.804;9.252;2023-08-08T08:20:29;20.10;51.40
70734;DHT22;58320;48.804;9.252;2023-08-08T08:22:55;20.10;50.80
70734;DHT22;58320;48.804;9.252;2023-08-08T08:25:21;20.10;51.30
70734;DHT22;58320;48.804;9.252;2023-08-08T08:27:47;20.10;51.40
70734;DHT22;58320;48.804;9.252;2023-08-08T08:30:13;19.90;51.20
70734;DHT22;58320;48.804;9.252;2023-08-08T08:32:43;19.70;51.10
70734;DHT22;58320;48.804;9.252;2023-08-08T08:35:09;19.50;52.50
70734;DHT22;58320;48.804;9.252;2023-08-08T08:37:35;19.70;52.80
70734;DHT22;58320;48.804;9.252;2023-08-08T08:40:01;19.80;52.30
70734;DHT22;58320;48.804;9.252;2023-08-08T08:42:30;19.70;51.90
70734;DHT22;58320;48.804;9.252;2023-08-08T08:44:58;19.60;52.20
70734;DHT22;58320;48.804;9.252;2023-08-08T08:47:25;19.50;53.00
70734;DHT22;58320;48.804;9.252;2023-08-08T08:49:54;19.70;52.80
70734;DHT22;58320;48.804;9.252;2023-08-08T08:52:21;19.80;52.30
70734;DHT22;58320;48.804;9.252;2023-08-08T08:54:48;20.10;52.70
70734;DHT22;58320;48.804;9.252;2023-08-08T08:57:14;20.20;51.70
70734;DHT22;58320;48.804;9.252;2023-08-08T08:59:41;20.10;51.10
70734;DHT22;58320;48.804;9.252;2023-08-08T09:02:07;20.00;51.40
70734;DHT22;58320;48.804;9.252;2023-08-08T09:04:34;20.00;52.40
70734;DHT22;58320;48.804;9.252;2023-08-08T09:07:01;20.30;52.20
70734;DHT22;58320;48.804;9.252;2023-08-08T09:09:31;20.70;53.00
70734;DHT22;58320;48.804;9.252;2023-08-08T09:11:57;21.10;50.80
70734;DHT22;58320;48.804;9.252;2023-08-08T09:14:25;21.30;49.80
70734;DHT22;58320;48.804;9.252;2023-08-08T09:16:53;21.40;48.50
70734;DHT22;58320;48.804;9.252;2023-08-08T09:19:20;21.00;50.30
70734;DHT22;58320;48.804;9.252;2023-08-08T09:21:47;20.80;50.40
70734;DHT22;58320;48.804;9.252;2023-08-08T09:24:13;20.80;50.40
70734;DHT22;58320;48.804;9.252;2023-08-08T09:26:40;21.00;49.40
70734;DHT22;58320;48.804;9.252;2023-08-08T09:29:06;21.30;50.40
70734;DHT22;58320;48.804;9.252;2023-08-08T09:31:34;21.40;47.90
70734;DHT22;58320;48.804;9.252;2023-08-08T09:34:02;21.10;48.10
70734;DHT22;58320;48.804;9.252;2023-08-08T09:36:29;21.20;48.30
70734;DHT22;58320;48.804;9.252;2023-08-08T09:38:55;21.30;48.50
70734;DHT22;58320;48.804;9.252;2023-08-08T09:41:22;21.10;48.00
70734;DHT22;58320;48.804;9.252;2023-08-08T09:43:49;20.90;47.20
70734;DHT22;58320;48.804;9.252;2023-08-08T09:46:16;20.70;47.30
70734;DHT22;58320;48.804;9.252;2023-08-08T09:48:43;20.60;48.50
70734;DHT22;58320;48.804;9.252;2023-08-08T09:51:09;20.70;48.60
70734;DHT22;58320;48.804;9.252;2023-08-08T09:53:35;21.10;47.40
70734;DHT22;58320;48.804;9.252;2023-08-08T09:56:03;21.60;45.70
70734;DHT22;58320;48.804;9.252;2023-08-08T09:58:30;21.80;45.20
70734;DHT22;58320;48.804;9.252;2023-08-08T10:00:55;21.90;46.00
70734;DHT22;58320;48.804;9.252;2023-08-08T10:03:22;22.00;45.20
70734;DHT22;58320;48.804;9.252;2023-08-08T10:05:48;21.90;45.60
70734;DHT22;58320;48.804;9.252;2023-08-08T10:08:17;22.10;46.20
70734;DHT22;58320;48.804;9.252;2023-08-08T10:10:45;22.10;45.20
70734;DHT22;58320;48.804;9.252;2023-08-08T10:13:26;22.10;46.30
70734;DHT22;58320;48.804;9.252;2023-08-08T10:15:53;22.00;47.80
70734;DHT22;58320;48.804;9.252;2023-08-08T10:18:23;21.90;46.30
70734;DHT22;58320;48.804;9.252;2023-08-08T10:20:50;21.80;46.60
70734;DHT22;58320;48.804;9.252;2023-08-08T10:23:18;22.10;45.30
70734;DHT22;58320;48.804;9.252;2023-08-08T10:25:48;22.40;43.20
70734;DHT22;58320;48.804;9.252;2023-08-08T10:28:18;22.30;43.60
70734;DHT22;58320;48.804;9.252;2023-08-08T10:33:25;22.10;43.50
70734;DHT22;58320;48.804;9.252;2023-08-08T10:38:48;21.80;42.30
70734;DHT22;58320;48.804;9.252;2023-08-08T10:41:20;21.70;43.20
70734;DHT22;58320;48.804;9.252;2023-08-08T10:43:54;21.60;42.30
70734;DHT22;58320;48.804;9.252;2023-08-08T10:46:27;21.40;42.40
70734;DHT22;58320;48.804;9.252;2023-08-08T10:48:57;21.60;43.30
70734;DHT22;58320;48.804;9.252;2023-08-08T10:51:50;21.90;43.30
70734;DHT22;58320;48.804;9.252;2023-08-08T10:54:21;22.10;42.90
70734;DHT22;58320;48.804;9.252;2023-08-08T10:56:54;22.10;42.70
70734;DHT22;58320;48.804;9.252;2023-08-08T10:59:25;22.00;43.10
70734;DHT22;58320;48.804;9.252;2023-08-08T11:02:04;21.90;42.60
70734;DHT22;58320;48.804;9.252;2023-08-08T11:04:30;21.90;42.80
70734;DHT22;58320;48.804;9.252;2023-08-08T11:06:58;22.10;42.50
70734;DHT22;58320;48.804;9.252;2023-08-08T11:09:24;22.40;42.60
70734;DHT22;58320;48.804;9.252;2023-08-08T11:11:51;22.40;42.20
70734;DHT22;58320;48.804;9.252;2023-08-08T11:14:21;22.20;43.10
70734;DHT22;58320;48.804;9.252;2023-08-08T11:16:49;22.00;41.90
70734;DHT22;58320;48.804;9.252;2023-08-08T11:19:17;21.80;42.20
70734;DHT22;58320;48.804;9.252;2023-08-08T11:21:45;21.80;42.20
70734;DHT22;58320;48.804;9.252;2023-08-08T11:24:13;22.00;42.00
70734;DHT22;58320;48.804;9.252;2023-08-08T11:26:41;22.40;41.00
70734;DHT22;58320;48.804;9.252;2023-08-08T11:29:09;22.70;40.10
70734;DHT22;58320;48.804;9.252;2023-08-08T11:31:35;22.80;40.10
70734;DHT22;58320;48.804;9.252;2023-08-08T11:34:01;23.20;39.60
70734;DHT22;58320;48.804;9.252;2023-08-08T11:36:31;24.00;38.80
70734;DHT22;58320;48.804;9.252;2023-08-08T11:39:00;25.00;37.10
70734;DHT22;58320;48.804;9.252;2023-08-08T11:41:33;25.50;36.20
70734;DHT22;58320;48.804;9.252;2023-08-08T11:43:59;25.90;36.40
70734;DHT22;58320;48.804;9.252;2023-08-08T11:46:25;26.00;34.80
70734;DHT22;58320;48.804;9.252;2023-08-08T11:48:51;26.10;33.10
70734;DHT22;58320;48.804;9.252;2023-08-08T11:51:17;26.00;32.60
70734;DHT22;58320;48.804;9.252;2023-08-08T11:53:51;25.70;34.20
70734;DHT22;58320;48.804;9.252;2023-08-08T11:56:19;25.00;34.20
70734;DHT22;58320;48.804;9.252;2023-08-08T11:58:47;24.90;35.90
70734;DHT22;58320;48.804;9.252;2023-08-08T12:01:14;25.40;35.80
70734;DHT22;58320;48.804;9.252;2023-08-08T12:03:40;26.00;34.70
70734;DHT22;58320;48.804;9.252;2023-08-08T12:06:16;26.20;34.30
70734;DHT22;58320;48.804;9.252;2023-08-08T12:08:44;26.00;35.20
70734;DHT22;58320;48.804;9.252;2023-08-08T12:11:11;25.40;35.90
70734;DHT22;58320;48.804;9.252;2023-08-08T12:13:40;25.10;36.20
70734;DHT22;58320;48.804;9.252;2023-08-08T12:16:09;24.70;37.00
70734;DHT22;58320;48.804;9.252;2023-08-08T12:18:37;24.50;37.30
70734;DHT22;58320;48.804;9.252;2023-08-08T12:21:07;24.50;38.00
70734;DHT22;58320;48.804;9.252;2023-08-08T12:23:34;25.30;36.20
70734;DHT22;58320;48.804;9.252;2023-08-08T12:26:03;26.40;33.60
70734;DHT22;58320;48.804;9.252;2023-08-08T12:28:31;27.10;33.20
70734;DHT22;58320;48.804;9.252;2023-08-08T12:30:59;27.50;32.90
70734;DHT22;58320;48.804;9.252;2023-08-08T12:33:25;27.20;33.40
70734;DHT22;58320;48.804;9.252;2023-08-08T12:35:51;27.10;33.20
70734;DHT22;58320;48.804;9.252;2023-08-08T12:38:16;26.40;32.10
70734;DHT22;58320;48.804;9.252;2023-08-08T12:40:42;25.60;34.00
70734;DHT22;58320;48.804;9.252;2023-08-08T12:43:10;25.20;35.00
70734;DHT22;58320;48.804;9.252;2023-08-08T12:45:43;25.00;36.10
70734;DHT22;58320;48.804;9.252;2023-08-08T12:48:10;25.00;35.90
70734;DHT22;58320;48.804;9.252;2023-08-08T12:50:36;24.90;36.00
70734;DHT22;58320;48.804;9.252;2023-08-08T12:53:03;24.90;36.70
70734;DHT22;58320;48.804;9.252;2023-08-08T12:55:30;24.90;37.60
70734;DHT22;58320;48.804;9.252;2023-08-08T12:57:56;25.70;35.80
70734;DHT22;58320;48.804;9.252;2023-08-08T13:00:22;26.50;35.40
70734;DHT22;58320;48.804;9.252;2023-08-08T13:02:49;26.90;34.20
70734;DHT22;58320;48.804;9.252;2023-08-08T13:05:14;27.00;33.50
70734;DHT22;58320;48.804;9.252;2023-08-08T13:07:40;26.60;35.00
70734;DHT22;58320;48.804;9.252;2023-08-08T13:10:06;25.80;35.10
70734;DHT22;58320;48.804;9.252;2023-08-08T13:12:32;25.10;36.60
70734;DHT22;58320;48.804;9.252;2023-08-08T13:14:58;24.70;37.00
70734;DHT22;58320;48.804;9.252;2023-08-08T13:17:24;24.10;37.70
70734;DHT22;58320;48.804;9.252;2023-08-08T13:19:50;23.80;38.90
70734;DHT22;58320;48.804;9.252;2023-08-08T13:22:15;23.80;39.40
70734;DHT22;58320;48.804;9.252;2023-08-08T13:24:42;23.80;39.60
70734;DHT22;58320;48.804;9.252;2023-08-08T13:27:07;23.80;39.50
70734;DHT22;58320;48.804;9.252;2023-08-08T13:29:33;23.50;40.30
70734;DHT22;58320;48.804;9.252;2023-08-08T13:31:59;23.00;40.80
70734;DHT22;58320;48.804;9.252;2023-08-08T13:34:24;22.90;41.90
70734;DHT22;58320;48.804;9.252;2023-08-08T13:36:50;23.00;42.50
70734;DHT22;58320;48.804;9.252;2023-08-08T13:39:16;23.60;42.00
70734;DHT22;58320;48.804;9.252;2023-08-08T13:41:41;24.40;41.00
70734;DHT22;58320;48.804;9.252;2023-08-08T13:44:07;24.70;41.10
70734;DHT22;58320;48.804;9.252;2023-08-08T13:46:33;25.00;41.00
70734;DHT22;58320;48.804;9.252;2023-08-08T13:48:59;25.10;39.80
70734;DHT22;58320;48.804;9.252;2023-08-08T13:51:24;24.90;40.80
70734;DHT22;58320;48.804;9.252;2023-08-08T13:53:50;25.90;39.60
70734;DHT22;58320;48.804;9.252;2023-08-08T13:56:17;26.70;35.50
70734;DHT22;58320;48.804;9.252;2023-08-08T13:58:43;26.90;34.40
70734;DHT22;58320;48.804;9.252;2023-08-08T14:01:10;26.60;35.10
70734;DHT22;58320;48.804;9.252;2023-08-08T14:03:35;26.60;35.40
70734;DHT22;58320;48.804;9.252;2023-08-08T14:06:01;26.60;35.80
70734;DHT22;58320;48.804;9.252;2023-08-08T14:08:27;26.40;36.10
70734;DHT22;58320;48.804;9.252;2023-08-08T14:10:53;25.60;36.70
70734;DHT22;58320;48.804;9.252;2023-08-08T14:13:19;25.10;37.60
70734;DHT22;58320;48.804;9.252;2023-08-08T14:15:45;24.80;38.60
70734;DHT22;58320;48.804;9.252;2023-08-08T14:18:11;24.30;39.40
70734;DHT22;58320;48.804;9.252;2023-08-08T14:20:37;23.90;40.40
70734;DHT22;58320;48.804;9.252;2023-08-08T14:23:04;23.20;41.00
70734;DHT22;58320;48.804;9.252;2023-08-08T14:25:30;22.80;41.60
70734;DHT22;58320;48.804;9.252;2023-08-08T14:27:55;22.60;42.00
70734;DHT22;58320;48.804;9.252;2023-08-08T14:30:22;22.50;42.30
70734;DHT22;58320;48.804;9.252;2023-08-08T14:32:51;22.70;42.70
70734;DHT22;58320;48.804;9.252;2023-08-08T14:35:17;23.10;41.60
70734;DHT22;58320;48.804;9.252;2023-08-08T14:37:43;23.20;41.30
70734;DHT22;58320;48.804;9.252;2023-08-08T14:40:09;23.00;42.00
70734;DHT22;58320;48.804;9.252;2023-08-08T14:42:35;22.70;42.50
70734;DHT22;58320;48.804;9.252;2023-08-08T14:45:01;22.40;43.00
70734;DHT22;58320;48.804;9.252;2023-08-08T14:47:26;22.40;43.00
70734;DHT22;58320;48.804;9.252;2023-08-08T14:49:52;22.40;42.70
70734;DHT22;58320;48.804;9.252;2023-08-08T14:52:18;22.40;43.10
70734;DHT22;58320;48.804;9.252;2023-08-08T14:54:44;22.30;43.30
70734;DHT22;58320;48.804;9.252;2023-08-08T14:57:10;22.10;44.30
70734;DHT22;58320;48.804;9.252;2023-08-08T14:59:36;22.00;44.30
70734;DHT22;58320;48.804;9.252;2023-08-08T15:02:01;21.90;44.00
70734;DHT22;58320;48.804;9.252;2023-08-08T15:04:27;21.90;44.40
70734;DHT22;58320;48.804;9.252;2023-08-08T15:06:53;22.30;44.30
70734;DHT22;58320;48.804;9.252;2023-08-08T15:09:19;22.60;43.40
70734;DHT22;58320;48.804;9.252;2023-08-08T15:11:44;22.60;43.20
70734;DHT22;58320;48.804;9.252;2023-08-08T15:14:10;22.40;43.90
70734;DHT22;58320;48.804;9.252;2023-08-08T15:16:36;22.30;44.30
70734;DHT22;58320;48.804;9.252;2023-08-08T15:19:02;22.10;44.60
70734;DHT22;58320;48.804;9.252;2023-08-08T15:21:28;21.80;45.40
70734;DHT22;58320;48.804;9.252;2023-08-08T15:23:54;21.70;46.00
70734;DHT22;58320;48.804;9.252;2023-08-08T15:26:19;21.60;46.20
70734;DHT22;58320;48.804;9.252;2023-08-08T15:28:47;21.50;46.40
70734;DHT22;58320;48.804;9.252;2023-08-08T15:31:14;21.50;46.50
70734;DHT22;58320;48.804;9.252;2023-08-08T15:33:39;21.80;46.80
70734;DHT22;58320;48.804;9.252;2023-08-08T15:36:05;22.50;45.10